sensor_id;sensor_type;location;lat;lon;timestamp;P1;durP1;ratioP1;P2;durP2;ratioP2
20095;SDS011;10207;50.942;6.900;2023-08-06T00:02:15;4.72;;;2.30;;
20095;SDS011;10207;50.942;6.900;2023-08-06T00:04:41;3.17;;;2.00;;
20095;SDS011;10207;50.942;6.900;2023-08-06T00:07:07;4.10;;;2.40;;
20095;SDS011;10207;50.942;6.900;2023-08-06T00:09:33;6.72;;;2.53;;
20095;SDS011;10207;50.942;6.900;2023-08-06T00:11:58;4.22;;;2.25;;
20095;SDS011;10207;50.942;6.900;2023-08-06T00:14:24;3.53;;;1.95;;
20095;SDS011;10207;50.942;6.900;2023-08-06T00:16:50;8.05;;;1.92;;
20095;SDS011;10207;50.942;6.900;2023-08-06T00:19:16;3.33;;;2.50;;
20095;SDS011;10207;50.942;6.900;2023-08-06T00:21:42;3.03;;;2.10;;
20095;SDS011;10207;50.942;6.900;2023-08-06T00:24:08;5.45;;;2.30;;
20095;SDS011;10207;50.942;6.900;2023-08-06T00:26:34;7.40;;;2.30;;
20095;SDS011;10207;50.942;6.900;2023-08-06T00:29:00;6.00;;;2.30;;
20095;SDS011;10207;50.942;6.900;2023-08-06T00:31:26;5.60;;;2.55;;
20095;SDS011;10207;50.942;6.900;2023-08-06T00:33:52;6.55;;;1.90;;
20095;SDS011;10207;50.942;6.900;2023-08-06T00:36:17;3.45;;;2.22;;
20095;SDS011;10207;50.942;6.900;2023-08-06T00:38:43;4.18;;;2.35;;
20095;SDS011;10207;50.942;6.900;2023-08-06T00:41:09;3.38;;;2.45;;
20095;SDS011;10207;50.942;6.900;2023-08-06T00:43:36;3.92;;;2.35;;
20095;SDS011;10207;50.942;6.900;2023-08-06T00:46:02;4.97;;;2.70;;
20095;SDS011;10207;50.942;6.900;2023-08-06T00:48:29;2.95;;;1.95;;
20095;SDS011;10207;50.942;6.900;2023-08-06T00:50:55;4.20;;;2.92;;
20095;SDS011;10207;50.942;6.900;2023-08-06T00:53:21;4.13;;;2.40;;
20095;SDS011;10207;50.942;6.900;2023-08-06T00:55:47;5.07;;;2.15;;
20095;SDS011;10207;50.942;6.900;2023-08-06T00:58:13;6.40;;;2.33;;
20095;SDS011;10207;50.942;6.900;2023-08-06T01:00:39;6.95;;;2.42;;
20095;SDS011;10207;50.942;6.900;2023-08-06T01:03:05;3.70;;;2.47;;
20095;SDS011;10207;50.942;6.900;2023-08-06T01:05:31;5.47;;;2.17;;
20095;SDS011;10207;50.942;6.900;2023-08-06T01:15:49;4.53;;;2.58;;
20095;SDS011;10207;50.942;6.900;2023-08-06T01:18:16;3.35;;;2.40;;
20095;SDS011;10207;50.942;6.900;2023-08-06T01:20:42;5.45;;;2.55;;
20095;SDS011;10207;50.942;6.900;2023-08-06T01:23:08;4.53;;;2.60;;
20095;SDS011;10207;50.942;6.900;2023-08-06T01:28:30;13.38;;;3.10;;
20095;SDS011;10207;50.942;6.900;2023-08-06T01:30:59;4.45;;;3.35;;
20095;SDS011;10207;50.942;6.900;2023-08-06T01:33:27;8.50;;;2.70;;
20095;SDS011;10207;50.942;6.900;2023-08-06T01:35:53;4.00;;;2.50;;
20095;SDS011;10207;50.942;6.900;2023-08-06T01:38:19;3.53;;;2.63;;
20095;SDS011;10207;50.942;6.900;2023-08-06T01:40:45;5.43;;;2.90;;
20095;SDS011;10207;50.942;6.900;2023-08-06T01:43:12;5.50;;;2.90;;
20095;SDS011;10207;50.942;6.900;2023-08-06T01:45:38;4.13;;;2.58;;
20095;SDS011;10207;50.942;6.900;2023-08-06T01:48:04;4.85;;;2.22;;
20095;SDS011;10207;50.942;6.900;2023-08-06T01:50:29;4.57;;;2.72;;
20095;SDS011;10207;50.942;6.900;2023-08-06T01:52:55;7.07;;;2.60;;
20095;SDS011;10207;50.942;6.900;2023-08-06T01:55:21;5.10;;;2.63;;
20095;SDS011;10207;50.942;6.900;2023-08-06T01:57:47;6.00;;;2.95;;
20095;SDS011;10207;50.942;6.900;2023-08-06T02:00:13;4.15;;;2.47;;
20095;SDS011;10207;50.942;6.900;2023-08-06T02:02:39;4.55;;;2.47;;
20095;SDS011;10207;50.942;6.900;2023-08-06T02:05:06;5.78;;;2.65;;
20095;SDS011;10207;50.942;6.900;2023-08-06T02:07:32;5.57;;;2.58;;
20095;SDS011;10207;50.942;6.900;2023-08-06T02:09:58;4.65;;;2.40;;
20095;SDS011;10207;50.942;6.900;2023-08-06T02:12:24;6.22;;;2.53;;
20095;SDS011;10207;50.942;6.900;2023-08-06T02:14:50;4.93;;;2.58;;
20095;SDS011;10207;50.942;6.900;2023-08-06T02:17:16;4.53;;;2.55;;
20095;SDS011;10207;50.942;6.900;2023-08-06T02:19:42;5.82;;;3.00;;
20095;SDS011;10207;50.942;6.900;2023-08-06T02:22:08;5.18;;;2.50;;
20095;SDS011;10207;50.942;6.900;2023-08-06T02:24:34;6.05;;;2.83;;
20095;SDS011;10207;50.942;6.900;2023-08-06T02:27:00;5.15;;;2.70;;
20095;SDS011;10207;50.942;6.900;2023-08-06T02:29:26;4.60;;;2.72;;
20095;SDS011;10207;50.942;6.900;2023-08-06T02:31:52;4.38;;;2.17;;
20095;SDS011;10207;50.942;6.900;2023-08-06T02:34:18;5.53;;;2.28;;
20095;SDS011;10207;50.942;6.900;2023-08-06T02:36:46;5.25;;;2.50;;
20095;SDS011;10207;50.942;6.900;2023-08-06T02:39:11;3.28;;;2.40;;
20095;SDS011;10207;50.942;6.900;2023-08-06T02:41:37;3.33;;;2.42;;
20095;SDS011;10207;50.942;6.900;2023-08-06T02:44:03;6.15;;;2.40;;
20095;SDS011;10207;50.942;6.900;2023-08-06T02:46:29;4.85;;;2.83;;
20095;SDS011;10207;50.942;6.900;2023-08-06T02:48:55;5.75;;;2.53;;
20095;SDS011;10207;50.942;6.900;2023-08-06T02:51:21;5.10;;;2.63;;
20095;SDS011;10207;50.942;6.900;2023-08-06T02:53:47;8.73;;;3.33;;
20095;SDS011;10207;50.942;6.900;2023-08-06T02:56:15;4.80;;;2.55;;
20095;SDS011;10207;50.942;6.900;2023-08-06T02:58:53;4.60;;;2.58;;
20095;SDS011;10207;50.942;6.900;2023-08-06T03:01:41;3.88;;;2.53;;
20095;SDS011;10207;50.942;6.900;2023-08-06T03:04:15;3.30;;;2.20;;
20095;SDS011;10207;50.942;6.900;2023-08-06T03:06:44;7.43;;;2.17;;
20095;SDS011;10207;50.942;6.900;2023-08-06T03:09:11;5.50;;;2.58;;
20095;SDS011;10207;50.942;6.900;2023-08-06T03:11:37;3.53;;;2.42;;
20095;SDS011;10207;50.942;6.900;2023-08-06T03:14:07;3.90;;;2.20;;
20095;SDS011;10207;50.942;6.900;2023-08-06T03:16:34;5.45;;;2.90;;
20095;SDS011;10207;50.942;6.900;2023-08-06T03:19:00;4.93;;;2.30;;
20095;SDS011;10207;50.942;6.900;2023-08-06T03:21:26;4.07;;;2.30;;
20095;SDS011;10207;50.942;6.900;2023-08-06T03:23:52;4.47;;;2.25;;
20095;SDS011;10207;50.942;6.900;2023-08-06T03:26:22;5.32;;;2.85;;
20095;SDS011;10207;50.942;6.900;2023-08-06T03:28:48;7.70;;;2.65;;
20095;SDS011;10207;50.942;6.900;2023-08-06T03:31:14;4.25;;;2.58;;
20095;SDS011;10207;50.942;6.900;2023-08-06T03:33:43;6.18;;;2.47;;
20095;SDS011;10207;50.942;6.900;2023-08-06T03:36:13;4.15;;;2.55;;
20095;SDS011;10207;50.942;6.900;2023-08-06T03:38:41;6.10;;;2.50;;
20095;SDS011;10207;50.942;6.900;2023-08-06T03:41:08;6.43;;;3.10;;
20095;SDS011;10207;50.942;6.900;2023-08-06T03:43:34;5.47;;;2.88;;
20095;SDS011;10207;50.942;6.900;2023-08-06T03:46:03;3.75;;;2.75;;
20095;SDS011;10207;50.942;6.900;2023-08-06T03:48:29;5.22;;;3.40;;
20095;SDS011;10207;50.942;6.900;2023-08-06T03:50:55;8.15;;;3.45;;
20095;SDS011;10207;50.942;6.900;2023-08-06T03:53:21;8.73;;;3.30;;
20095;SDS011;10207;50.942;6.900;2023-08-06T03:55:47;6.00;;;3.50;;
20095;SDS011;10207;50.942;6.900;2023-08-06T03:58:13;6.20;;;3.67;;
20095;SDS011;10207;50.942;6.900;2023-08-06T04:00:39;10.27;;;3.80;;
20095;SDS011;10207;50.942;6.900;2023-08-06T04:03:05;10.52;;;3.72;;
20095;SDS011;10207;50.942;6.900;2023-08-06T04:05:31;4.93;;;3.35;;
20095;SDS011;10207;50.942;6.900;2023-08-06T04:07:58;6.57;;;3.63;;
20095;SDS011;10207;50.942;6.900;2023-08-06T04:10:25;8.13;;;3.85;;
20095;SDS011;10207;50.942;6.900;2023-08-06T04:12:51;10.57;;;4.85;;
20095;SDS011;10207;50.942;6.900;2023-08-06T04:15:17;7.10;;;4.25;;
20095;SDS011;10207;50.942;6.900;2023-08-06T04:17:43;7.70;;;4.00;;
20095;SDS011;10207;50.942;6.900;2023-08-06T04:20:09;10.10;;;5.05;;
20095;SDS011;10207;50.942;6.900;2023-08-06T04:22:35;8.25;;;4.72;;
20095;SDS011;10207;50.942;6.900;2023-08-06T04:25:01;9.15;;;3.85;;
20095;SDS011;10207;50.942;6.900;2023-08-06T04:27:27;6.82;;;4.13;;
20095;SDS011;10207;50.942;6.900;2023-08-06T04:29:53;8.57;;;4.15;;
20095;SDS011;10207;50.942;6.900;2023-08-06T04:32:19;7.95;;;3.65;;
20095;SDS011;10207;50.942;6.900;2023-08-06T04:34:49;9.55;;;3.92;;
20095;SDS011;10207;50.942;6.900;2023-08-06T04:37:15;6.68;;;3.88;;
20095;SDS011;10207;50.942;6.900;2023-08-06T04:39:41;10.57;;;4.22;;
20095;SDS011;10207;50.942;6.900;2023-08-06T04:42:07;7.68;;;3.65;;
20095;SDS011;10207;50.942;6.900;2023-08-06T04:44:33;6.47;;;3.47;;
20095;SDS011;10207;50.942;6.900;2023-08-06T04:46:59;6.07;;;3.58;;
20095;SDS011;10207;50.942;6.900;2023-08-06T04:49:25;8.30;;;3.88;;
20095;SDS011;10207;50.942;6.900;2023-08-06T04:51:51;6.63;;;3.20;;
20095;SDS011;10207;50.942;6.900;2023-08-06T04:54:16;8.52;;;4.70;;
20095;SDS011;10207;50.942;6.900;2023-08-06T04:56:42;11.05;;;4.28;;
20095;SDS011;10207;50.942;6.900;2023-08-06T04:59:08;7.95;;;4.57;;
20095;SDS011;10207;50.942;6.900;2023-08-06T05:01:34;6.95;;;3.03;;
20095;SDS011;10207;50.942;6.900;2023-08-06T05:04:00;5.20;;;3.25;;
20095;SDS011;10207;50.942;6.900;2023-08-06T05:06:26;6.82;;;3.90;;
20095;SDS011;10207;50.942;6.900;2023-08-06T05:08:52;8.88;;;4.47;;
20095;SDS011;10207;50.942;6.900;2023-08-06T05:11:18;8.52;;;4.03;;
20095;SDS011;10207;50.942;6.900;2023-08-06T05:13:44;8.85;;;4.22;;
20095;SDS011;10207;50.942;6.900;2023-08-06T05:16:09;10.32;;;4.32;;
20095;SDS011;10207;50.942;6.900;2023-08-06T05:18:35;8.77;;;3.92;;
20095;SDS011;10207;50.942;6.900;2023-08-06T05:21:03;6.97;;;3.33;;
20095;SDS011;10207;50.942;6.900;2023-08-06T05:23:29;8.43;;;4.32;;
20095;SDS011;10207;50.942;6.900;2023-08-06T05:25:55;8.02;;;4.13;;
20095;SDS011;10207;50.942;6.900;2023-08-06T05:28:21;7.68;;;3.78;;
20095;SDS011;10207;50.942;6.900;2023-08-06T05:30:46;8.48;;;3.67;;
20095;SDS011;10207;50.942;6.900;2023-08-06T05:33:12;5.18;;;3.97;;
20095;SDS011;10207;50.942;6.900;2023-08-06T05:35:40;6.82;;;3.90;;
20095;SDS011;10207;50.942;6.900;2023-08-06T05:38:06;4.70;;;3.20;;
20095;SDS011;10207;50.942;6.900;2023-08-06T05:40:35;7.68;;;3.20;;
20095;SDS011;10207;50.942;6.900;2023-08-06T05:43:01;6.57;;;3.78;;
20095;SDS011;10207;50.942;6.900;2023-08-06T05:45:27;5.05;;;3.20;;
20095;SDS011;10207;50.942;6.900;2023-08-06T05:47:53;6.25;;;3.15;;
20095;SDS011;10207;50.942;6.900;2023-08-06T05:50:23;8.40;;;3.33;;
20095;SDS011;10207;50.942;6.900;2023-08-06T05:52:50;6.35;;;3.20;;
20095;SDS011;10207;50.942;6.900;2023-08-06T05:55:16;4.75;;;3.13;;
20095;SDS011;10207;50.942;6.900;2023-08-06T05:57:42;6.22;;;3.60;;
20095;SDS011;10207;50.942;6.900;2023-08-06T06:00:08;5.18;;;3.28;;
20095;SDS011;10207;50.942;6.900;2023-08-06T06:02:38;7.35;;;3.63;;
20095;SDS011;10207;50.942;6.900;2023-08-06T06:05:04;5.40;;;3.88;;
20095;SDS011;10207;50.942;6.900;2023-08-06T06:07:30;7.25;;;3.53;;
20095;SDS011;10207;50.942;6.900;2023-08-06T06:09:56;7.65;;;3.80;;
20095;SDS011;10207;50.942;6.900;2023-08-06T06:12:22;8.48;;;3.97;;
20095;SDS011;10207;50.942;6.900;2023-08-06T06:14:48;7.10;;;3.78;;
20095;SDS011;10207;50.942;6.900;2023-08-06T06:17:14;8.40;;;3.38;;
20095;SDS011;10207;50.942;6.900;2023-08-06T06:19:39;5.75;;;3.40;;
20095;SDS011;10207;50.942;6.900;2023-08-06T06:22:05;4.80;;;3.58;;
20095;SDS011;10207;50.942;6.900;2023-08-06T06:24:31;5.95;;;3.60;;
20095;SDS011;10207;50.942;6.900;2023-08-06T06:26:57;11.15;;;3.85;;
20095;SDS011;10207;50.942;6.900;2023-08-06T06:29:23;7.75;;;3.80;;
20095;SDS011;10207;50.942;6.900;2023-08-06T06:31:49;5.25;;;3.70;;
20095;SDS011;10207;50.942;6.900;2023-08-06T06:34:15;5.68;;;3.20;;
20095;SDS011;10207;50.942;6.900;2023-08-06T06:36:41;4.88;;;2.97;;
20095;SDS011;10207;50.942;6.900;2023-08-06T06:39:07;3.95;;;2.55;;
20095;SDS011;10207;50.942;6.900;2023-08-06T06:41:33;9.85;;;3.17;;
20095;SDS011;10207;50.942;6.900;2023-08-06T06:44:08;4.55;;;2.55;;
20095;SDS011;10207;50.942;6.900;2023-08-06T06:46:34;3.28;;;1.63;;
20095;SDS011;10207;50.942;6.900;2023-08-06T06:49:00;2.08;;;1.60;;
20095;SDS011;10207;50.942;6.900;2023-08-06T06:51:25;4.20;;;2.28;;
20095;SDS011;10207;50.942;6.900;2023-08-06T06:53:51;2.30;;;1.60;;
20095;SDS011;10207;50.942;6.900;2023-08-06T06:56:17;3.50;;;1.35;;
20095;SDS011;10207;50.942;6.900;2023-08-06T06:58:43;3.33;;;1.42;;
20095;SDS011;10207;50.942;6.900;2023-08-06T07:01:09;3.20;;;1.45;;
20095;SDS011;10207;50.942;6.900;2023-08-06T07:03:37;3.25;;;1.65;;
20095;SDS011;10207;50.942;6.900;2023-08-06T07:06:03;2.72;;;1.40;;
20095;SDS011;10207;50.942;6.900;2023-08-06T07:08:29;2.25;;;1.23;;
20095;SDS011;10207;50.942;6.900;2023-08-06T07:11:01;3.25;;;1.45;;
20095;SDS011;10207;50.942;6.900;2023-08-06T07:13:28;4.65;;;1.60;;
20095;SDS011;10207;50.942;6.900;2023-08-06T07:15:54;2.80;;;1.42;;
20095;SDS011;10207;50.942;6.900;2023-08-06T07:18:20;2.53;;;1.60;;
20095;SDS011;10207;50.942;6.900;2023-08-06T07:20:50;4.15;;;1.50;;
20095;SDS011;10207;50.942;6.900;2023-08-06T07:23:16;3.75;;;1.58;;
20095;SDS011;10207;50.942;6.900;2023-08-06T07:25:42;2.80;;;1.70;;
20095;SDS011;10207;50.942;6.900;2023-08-06T07:28:09;5.47;;;1.48;;
20095;SDS011;10207;50.942;6.900;2023-08-06T07:30:38;5.30;;;1.60;;
20095;SDS011;10207;50.942;6.900;2023-08-06T07:33:04;2.50;;;1.20;;
20095;SDS011;10207;50.942;6.900;2023-08-06T07:35:30;3.80;;;1.20;;
20095;SDS011;10207;50.942;6.900;2023-08-06T07:37:56;3.65;;;1.30;;
20095;SDS011;10207;50.942;6.900;2023-08-06T07:40:22;3.25;;;1.27;;
20095;SDS011;10207;50.942;6.900;2023-08-06T07:42:47;1.98;;;1.30;;
20095;SDS011;10207;50.942;6.900;2023-08-06T07:45:13;2.67;;;1.00;;
20095;SDS011;10207;50.942;6.900;2023-08-06T07:47:39;2.97;;;1.27;;
20095;SDS011;10207;50.942;6.900;2023-08-06T07:50:06;1.50;;;1.10;;
20095;SDS011;10207;50.942;6.900;2023-08-06T07:52:32;2.70;;;1.13;;
20095;SDS011;10207;50.942;6.900;2023-08-06T07:54:57;5.53;;;1.17;;
20095;SDS011;10207;50.942;6.900;2023-08-06T07:57:24;2.15;;;0.98;;
20095;SDS011;10207;50.942;6.900;2023-08-06T07:59:50;0.80;;;0.80;;
20095;SDS011;10207;50.942;6.900;2023-08-06T08:02:16;1.95;;;0.80;;
20095;SDS011;10207;50.942;6.900;2023-08-06T08:04:42;1.67;;;0.75;;
20095;SDS011;10207;50.942;6.900;2023-08-06T08:07:09;0.90;;;0.47;;
20095;SDS011;10207;50.942;6.900;2023-08-06T08:09:35;1.25;;;0.70;;
20095;SDS011;10207;50.942;6.900;2023-08-06T08:12:01;2.72;;;0.88;;
20095;SDS011;10207;50.942;6.900;2023-08-06T08:14:28;1.45;;;0.65;;
20095;SDS011;10207;50.942;6.900;2023-08-06T08:16:54;1.98;;;0.70;;
20095;SDS011;10207;50.942;6.900;2023-08-06T08:19:20;0.93;;;0.60;;
20095;SDS011;10207;50.942;6.900;2023-08-06T08:21:47;1.02;;;0.50;;
20095;SDS011;10207;50.942;6.900;2023-08-06T08:24:12;1.98;;;0.90;;
20095;SDS011;10207;50.942;6.900;2023-08-06T08:26:38;0.73;;;0.60;;
20095;SDS011;10207;50.942;6.900;2023-08-06T08:29:04;1.35;;;0.77;;
20095;SDS011;10207;50.942;6.900;2023-08-06T08:31:30;0.85;;;0.60;;
20095;SDS011;10207;50.942;6.900;2023-08-06T08:33:57;1.55;;;0.60;;
20095;SDS011;10207;50.942;6.900;2023-08-06T08:36:23;2.88;;;0.57;;
20095;SDS011;10207;50.942;6.900;2023-08-06T08:38:49;2.15;;;0.60;;
20095;SDS011;10207;50.942;6.900;2023-08-06T08:41:19;2.03;;;0.60;;
20095;SDS011;10207;50.942;6.900;2023-08-06T08:43:45;0.57;;;0.50;;
20095;SDS011;10207;50.942;6.900;2023-08-06T08:46:13;0.85;;;0.75;;
20095;SDS011;10207;50.942;6.900;2023-08-06T08:48:39;0.98;;;0.70;;
20095;SDS011;10207;50.942;6.900;2023-08-06T08:51:05;1.55;;;0.90;;
20095;SDS011;10207;50.942;6.900;2023-08-06T08:53:32;2.42;;;0.95;;
20095;SDS011;10207;50.942;6.900;2023-08-06T08:55:58;3.67;;;1.10;;
20095;SDS011;10207;50.942;6.900;2023-08-06T08:58:24;1.45;;;0.80;;
20095;SDS011;10207;50.942;6.900;2023-08-06T09:00:50;2.67;;;1.35;;
20095;SDS011;10207;50.942;6.900;2023-08-06T09:03:17;1.83;;;0.95;;
20095;SDS011;10207;50.942;6.900;2023-08-06T09:05:44;1.15;;;0.60;;
20095;SDS011;10207;50.942;6.900;2023-08-06T09:08:11;0.88;;;0.88;;
20095;SDS011;10207;50.942;6.900;2023-08-06T09:10:37;1.50;;;1.20;;
20095;SDS011;10207;50.942;6.900;2023-08-06T09:13:04;2.78;;;1.20;;
20095;SDS011;10207;50.942;6.900;2023-08-06T09:15:30;2.35;;;1.48;;
20095;SDS011;10207;50.942;6.900;2023-08-06T09:17:56;1.70;;;1.38;;
20095;SDS011;10207;50.942;6.900;2023-08-06T09:20:22;1.75;;;1.65;;
20095;SDS011;10207;50.942;6.900;2023-08-06T09:22:48;3.08;;;1.63;;
20095;SDS011;10207;50.942;6.900;2023-08-06T09:25:20;2.38;;;1.88;;
20095;SDS011;10207;50.942;6.900;2023-08-06T09:27:46;3.00;;;2.08;;
20095;SDS011;10207;50.942;6.900;2023-08-06T09:30:13;7.78;;;3.33;;
20095;SDS011;10207;50.942;6.900;2023-08-06T09:32:54;6.50;;;2.85;;
20095;SDS011;10207;50.942;6.900;2023-08-06T09:35:21;4.32;;;3.50;;
20095;SDS011;10207;50.942;6.900;2023-08-06T09:37:47;5.63;;;4.43;;
20095;SDS011;10207;50.942;6.900;2023-08-06T09:40:25;6.28;;;4.85;;
20095;SDS011;10207;50.942;6.900;2023-08-06T09:42:52;11.50;;;6.95;;
20095;SDS011;10207;50.942;6.900;2023-08-06T09:45:18;8.48;;;6.55;;
20095;SDS011;10207;50.942;6.900;2023-08-06T09:47:44;7.93;;;5.70;;
20095;SDS011;10207;50.942;6.900;2023-08-06T09:50:16;6.43;;;5.40;;
20095;SDS011;10207;50.942;6.900;2023-08-06T09:52:42;6.63;;;4.50;;
20095;SDS011;10207;50.942;6.900;2023-08-06T09:55:09;8.13;;;6.07;;
20095;SDS011;10207;50.942;6.900;2023-08-06T09:57:36;6.70;;;5.25;;
20095;SDS011;10207;50.942;6.900;2023-08-06T10:00:02;6.10;;;5.50;;
20095;SDS011;10207;50.942;6.900;2023-08-06T10:02:39;5.78;;;3.97;;
20095;SDS011;10207;50.942;6.900;2023-08-06T10:05:05;4.50;;;2.50;;
20095;SDS011;10207;50.942;6.900;2023-08-06T10:07:32;3.38;;;1.77;;
20095;SDS011;10207;50.942;6.900;2023-08-06T10:09:58;7.20;;;2.47;;
20095;SDS011;10207;50.942;6.900;2023-08-06T10:12:24;8.32;;;1.92;;
20095;SDS011;10207;50.942;6.900;2023-08-06T10:14:51;1.25;;;0.73;;
20095;SDS011;10207;50.942;6.900;2023-08-06T10:17:19;4.57;;;0.90;;
20095;SDS011;10207;50.942;6.900;2023-08-06T10:19:46;2.30;;;0.73;;
20095;SDS011;10207;50.942;6.900;2023-08-06T10:22:13;1.05;;;0.50;;
20095;SDS011;10207;50.942;6.900;2023-08-06T10:24:49;1.83;;;0.50;;
20095;SDS011;10207;50.942;6.900;2023-08-06T10:30:24;1.15;;;0.65;;
20095;SDS011;10207;50.942;6.900;2023-08-06T10:32:51;1.20;;;0.30;;
20095;SDS011;10207;50.942;6.900;2023-08-06T10:38:05;1.00;;;0.50;;
20095;SDS011;10207;50.942;6.900;2023-08-06T10:40:33;1.17;;;0.73;;
20095;SDS011;10207;50.942;6.900;2023-08-06T10:42:59;3.63;;;1.00;;
20095;SDS011;10207;50.942;6.900;2023-08-06T10:45:26;3.03;;;1.30;;
20095;SDS011;10207;50.942;6.900;2023-08-06T10:47:56;2.00;;;1.55;;
20095;SDS011;10207;50.942;6.900;2023-08-06T10:50:23;1.88;;;1.40;;
20095;SDS011;10207;50.942;6.900;2023-08-06T10:52:49;2.60;;;1.55;;
20095;SDS011;10207;50.942;6.900;2023-08-06T10:55:24;3.25;;;1.90;;
20095;SDS011;10207;50.942;6.900;2023-08-06T10:57:51;3.70;;;1.90;;
20095;SDS011;10207;50.942;6.900;2023-08-06T11:00:17;5.40;;;1.95;;
20095;SDS011;10207;50.942;6.900;2023-08-06T11:02:43;2.97;;;1.73;;
20095;SDS011;10207;50.942;6.900;2023-08-06T11:05:11;2.85;;;1.65;;
20095;SDS011;10207;50.942;6.900;2023-08-06T11:07:38;2.60;;;1.85;;
20095;SDS011;10207;50.942;6.900;2023-08-06T11:10:05;6.50;;;2.05;;
20095;SDS011;10207;50.942;6.900;2023-08-06T11:12:32;5.10;;;2.30;;
20095;SDS011;10207;50.942;6.900;2023-08-06T11:14:58;5.47;;;3.35;;
20095;SDS011;10207;50.942;6.900;2023-08-06T11:17:24;3.95;;;2.15;;
20095;SDS011;10207;50.942;6.900;2023-08-06T11:19:50;6.82;;;2.83;;
20095;SDS011;10207;50.942;6.900;2023-08-06T11:22:16;5.75;;;2.60;;
20095;SDS011;10207;50.942;6.900;2023-08-06T11:24:43;7.88;;;2.72;;
20095;SDS011;10207;50.942;6.900;2023-08-06T11:27:12;6.53;;;2.25;;
20095;SDS011;10207;50.942;6.900;2023-08-06T11:29:38;4.97;;;3.10;;
20095;SDS011;10207;50.942;6.900;2023-08-06T11:32:05;10.23;;;2.67;;
20095;SDS011;10207;50.942;6.900;2023-08-06T11:34:31;8.20;;;2.83;;
20095;SDS011;10207;50.942;6.900;2023-08-06T11:36:57;7.65;;;3.30;;
20095;SDS011;10207;50.942;6.900;2023-08-06T11:39:23;8.10;;;3.00;;
20095;SDS011;10207;50.942;6.900;2023-08-06T11:41:49;4.50;;;2.03;;
20095;SDS011;10207;50.942;6.900;2023-08-06T11:44:18;4.65;;;2.08;;
20095;SDS011;10207;50.942;6.900;2023-08-06T11:46:54;5.05;;;1.90;;
20095;SDS011;10207;50.942;6.900;2023-08-06T11:49:37;5.00;;;2.33;;
20095;SDS011;10207;50.942;6.900;2023-08-06T11:54:42;4.13;;;1.25;;
20095;SDS011;10207;50.942;6.900;2023-08-06T11:57:08;7.80;;;1.42;;
20095;SDS011;10207;50.942;6.900;2023-08-06T11:59:34;3.63;;;1.30;;
20095;SDS011;10207;50.942;6.900;2023-08-06T12:02:01;6.28;;;2.33;;
20095;SDS011;10207;50.942;6.900;2023-08-06T12:04:28;4.68;;;1.33;;
20095;SDS011;10207;50.942;6.900;2023-08-06T12:06:53;4.30;;;1.27;;
20095;SDS011;10207;50.942;6.900;2023-08-06T12:09:19;2.85;;;1.35;;
20095;SDS011;10207;50.942;6.900;2023-08-06T12:11:46;2.95;;;1.27;;
20095;SDS011;10207;50.942;6.900;2023-08-06T12:14:12;3.53;;;1.13;;
20095;SDS011;10207;50.942;6.900;2023-08-06T12:16:38;3.63;;;0.82;;
20095;SDS011;10207;50.942;6.900;2023-08-06T12:19:04;1.42;;;0.57;;
20095;SDS011;10207;50.942;6.900;2023-08-06T12:21:30;4.70;;;1.20;;
20095;SDS011;10207;50.942;6.900;2023-08-06T12:23:56;3.92;;;1.00;;
20095;SDS011;10207;50.942;6.900;2023-08-06T12:26:21;2.20;;;0.88;;
20095;SDS011;10207;50.942;6.900;2023-08-06T12:28:47;2.35;;;1.02;;
20095;SDS011;10207;50.942;6.900;2023-08-06T12:31:15;2.97;;;0.77;;
20095;SDS011;10207;50.942;6.900;2023-08-06T12:33:41;4.50;;;0.80;;
20095;SDS011;10207;50.942;6.900;2023-08-06T12:36:06;3.10;;;1.00;;
20095;SDS011;10207;50.942;6.900;2023-08-06T12:38:32;2.92;;;1.00;;
20095;SDS011;10207;50.942;6.900;2023-08-06T12:40:59;4.60;;;1.73;;
20095;SDS011;10207;50.942;6.900;2023-08-06T12:43:25;6.22;;;2.55;;
20095;SDS011;10207;50.942;6.900;2023-08-06T12:45:51;5.63;;;1.40;;
20095;SDS011;10207;50.942;6.900;2023-08-06T12:48:17;7.57;;;1.80;;
20095;SDS011;10207;50.942;6.900;2023-08-06T12:50:43;6.68;;;1.50;;
20095;SDS011;10207;50.942;6.900;2023-08-06T12:53:09;2.63;;;1.73;;
20095;SDS011;10207;50.942;6.900;2023-08-06T12:55:35;5.00;;;1.80;;
20095;SDS011;10207;50.942;6.900;2023-08-06T12:58:00;4.13;;;1.75;;
20095;SDS011;10207;50.942;6.900;2023-08-06T13:00:26;6.47;;;3.42;;
20095;SDS011;10207;50.942;6.900;2023-08-06T13:02:52;5.35;;;1.98;;
20095;SDS011;10207;50.942;6.900;2023-08-06T13:05:18;3.25;;;1.90;;
20095;SDS011;10207;50.942;6.900;2023-08-06T13:07:45;4.88;;;1.92;;
20095;SDS011;10207;50.942;6.900;2023-08-06T13:10:11;6.30;;;2.00;;
20095;SDS011;10207;50.942;6.900;2023-08-06T13:12:37;4.43;;;1.15;;
20095;SDS011;10207;50.942;6.900;2023-08-06T13:15:03;6.45;;;2.15;;
20095;SDS011;10207;50.942;6.900;2023-08-06T13:17:29;7.32;;;2.03;;
20095;SDS011;10207;50.942;6.900;2023-08-06T13:19:55;7.32;;;1.65;;
20095;SDS011;10207;50.942;6.900;2023-08-06T13:22:21;3.17;;;1.50;;
20095;SDS011;10207;50.942;6.900;2023-08-06T13:24:47;4.60;;;1.58;;
20095;SDS011;10207;50.942;6.900;2023-08-06T13:27:13;2.83;;;1.40;;
20095;SDS011;10207;50.942;6.900;2023-08-06T13:29:39;5.80;;;2.40;;
20095;SDS011;10207;50.942;6.900;2023-08-06T13:32:05;7.55;;;2.30;;
20095;SDS011;10207;50.942;6.900;2023-08-06T13:34:31;3.88;;;2.75;;
20095;SDS011;10207;50.942;6.900;2023-08-06T13:36:57;7.25;;;3.60;;
20095;SDS011;10207;50.942;6.900;2023-08-06T13:39:23;6.18;;;3.42;;
20095;SDS011;10207;50.942;6.900;2023-08-06T13:41:49;7.50;;;4.07;;
20095;SDS011;10207;50.942;6.900;2023-08-06T13:44:15;9.43;;;4.38;;
20095;SDS011;10207;50.942;6.900;2023-08-06T13:46:41;6.18;;;4.47;;
20095;SDS011;10207;50.942;6.900;2023-08-06T13:49:07;14.60;;;5.15;;
20095;SDS011;10207;50.942;6.900;2023-08-06T13:51:33;10.52;;;5.00;;
20095;SDS011;10207;50.942;6.900;2023-08-06T13:54:01;7.45;;;3.22;;
20095;SDS011;10207;50.942;6.900;2023-08-06T13:56:27;10.15;;;5.20;;
20095;SDS011;10207;50.942;6.900;2023-08-06T13:58:55;7.43;;;5.00;;
20095;SDS011;10207;50.942;6.900;2023-08-06T14:01:21;13.80;;;6.30;;
20095;SDS011;10207;50.942;6.900;2023-08-06T14:03:47;10.40;;;5.10;;
20095;SDS011;10207;50.942;6.900;2023-08-06T14:06:13;10.00;;;5.60;;
20095;SDS011;10207;50.942;6.900;2023-08-06T14:08:39;7.05;;;5.45;;
20095;SDS011;10207;50.942;6.900;2023-08-06T14:11:05;9.32;;;5.35;;
20095;SDS011;10207;50.942;6.900;2023-08-06T14:13:32;5.70;;;3.00;;
20095;SDS011;10207;50.942;6.900;2023-08-06T14:15:57;8.32;;;2.30;;
20095;SDS011;10207;50.942;6.900;2023-08-06T14:18:23;6.00;;;1.95;;
20095;SDS011;10207;50.942;6.900;2023-08-06T14:20:49;4.18;;;1.40;;
20095;SDS011;10207;50.942;6.900;2023-08-06T14:23:15;8.13;;;1.38;;
20095;SDS011;10207;50.942;6.900;2023-08-06T14:25:41;3.70;;;1.38;;
20095;SDS011;10207;50.942;6.900;2023-08-06T14:28:07;6.13;;;0.95;;
20095;SDS011;10207;50.942;6.900;2023-08-06T14:30:33;4.13;;;1.00;;
20095;SDS011;10207;50.942;6.900;2023-08-06T14:33:00;3.75;;;0.93;;
20095;SDS011;10207;50.942;6.900;2023-08-06T14:35:26;7.72;;;1.08;;
20095;SDS011;10207;50.942;6.900;2023-08-06T14:37:52;7.05;;;1.10;;
20095;SDS011;10207;50.942;6.900;2023-08-06T14:40:18;3.40;;;1.20;;
20095;SDS011;10207;50.942;6.900;2023-08-06T14:42:44;3.13;;;0.70;;
20095;SDS011;10207;50.942;6.900;2023-08-06T14:45:10;5.88;;;1.00;;
20095;SDS011;10207;50.942;6.900;2023-08-06T14:47:36;2.90;;;1.05;;
20095;SDS011;10207;50.942;6.900;2023-08-06T14:50:02;2.45;;;0.93;;
20095;SDS011;10207;50.942;6.900;2023-08-06T14:52:28;1.60;;;0.57;;
20095;SDS011;10207;50.942;6.900;2023-08-06T14:54:54;5.00;;;1.08;;
20095;SDS011;10207;50.942;6.900;2023-08-06T14:57:21;1.30;;;0.50;;
20095;SDS011;10207;50.942;6.900;2023-08-06T14:59:54;3.15;;;0.43;;
20095;SDS011;10207;50.942;6.900;2023-08-06T15:02:20;2.78;;;0.68;;
20095;SDS011;10207;50.942;6.900;2023-08-06T15:04:46;1.98;;;0.50;;